createdAt,value
2023-03-02T00:01:49.859Z,100859.88
2023-03-02T00:04:20.864Z,100858.16
2023-03-02T00:06:49.894Z,100853.88
2023-03-02T00:09:19.103Z,100857.25
2023-03-02T00:11:47.237Z,100853.88
2023-03-02T00:14:15.727Z,100858.97
2023-03-02T00:16:45.166Z,100855.56
2023-03-02T00:19:14.321Z,100857.31
2023-03-02T00:21:42.799Z,100851.25
2023-03-02T00:24:10.907Z,100855.59
2023-03-02T00:26:39.027Z,100852.13
2023-03-02T00:29:07.221Z,100853.00
2023-03-02T00:31:35.606Z,100847.00
2023-03-02T00:34:03.419Z,100852.13
2023-03-02T00:36:32.944Z,100857.22
2023-03-02T00:39:00.760Z,100857.22
2023-03-02T00:41:28.992Z,100852.94
2023-03-02T00:43:57.099Z,100855.50
2023-03-02T00:46:26.230Z,100852.13
2023-03-02T00:48:54.500Z,100850.44
2023-03-02T00:51:23.017Z,100851.31
2023-03-02T00:53:52.154Z,100853.81
2023-03-02T00:56:20.760Z,100847.81
2023-03-02T00:58:51.526Z,100842.75
2023-03-02T01:01:19.934Z,100841.00
2023-03-02T01:03:51.293Z,100826.50
2023-03-02T01:06:22.547Z,100823.06
2023-03-02T01:08:51.859Z,100831.66
2023-03-02T01:11:22.181Z,100823.88
2023-03-02T01:13:51.186Z,100819.53
2023-03-02T01:16:19.701Z,100828.13
2023-03-02T01:18:47.714Z,100823.81
2023-03-02T01:21:17.248Z,100817.09
2023-03-02T01:23:45.636Z,100818.81
2023-03-02T01:26:15.036Z,100812.78
2023-03-02T01:28:43.395Z,100809.41
2023-03-02T01:31:11.213Z,100805.19
2023-03-02T01:33:39.186Z,100809.44
2023-03-02T01:36:08.109Z,100810.25
2023-03-02T01:38:36.526Z,100803.41
2023-03-02T01:41:04.352Z,100810.25
2023-03-02T01:43:33.659Z,100802.56
2023-03-02T01:46:03.899Z,100798.34
2023-03-02T01:48:48.196Z,100788.97
2023-03-02T01:51:23.787Z,100791.50
2023-03-02T01:53:55.649Z,100791.50
2023-03-02T01:56:27.969Z,100793.22
2023-03-02T01:59:02.378Z,100794.06
2023-03-02T02:01:33.155Z,100787.22
2023-03-02T02:04:01.783Z,100788.06
2023-03-02T02:06:33.941Z,100787.16
2023-03-02T02:09:04.751Z,100783.75
2023-03-02T02:11:32.713Z,100773.50
2023-03-02T02:14:03.153Z,100787.09
2023-03-02T02:16:34.864Z,100777.75
2023-03-02T02:19:04.751Z,100783.66
2023-03-02T02:21:32.892Z,100775.97
2023-03-02T02:24:08.802Z,100775.06
2023-03-02T02:26:42.438Z,100768.28
2023-03-02T02:29:14.702Z,100772.50
2023-03-02T02:31:48.055Z,100769.09
2023-03-02T02:34:23.577Z,100763.09
2023-03-02T02:36:56.275Z,100761.38
2023-03-02T02:39:30.022Z,100753.78
2023-03-02T02:42:03.854Z,100766.53
2023-03-02T02:44:32.550Z,100759.63
2023-03-02T02:47:01.824Z,100759.72
2023-03-02T02:49:35.164Z,100763.97
2023-03-02T02:52:04.217Z,100769.84
2023-03-02T02:54:33.453Z,100766.38
2023-03-02T02:57:04.491Z,100769.78
2023-03-02T02:59:35.197Z,100774.91
2023-03-02T03:02:04.208Z,100778.25
2023-03-02T03:04:33.381Z,100781.66
2023-03-02T03:07:03.529Z,100779.09
2023-03-02T03:09:32.232Z,100785.03
2023-03-02T03:12:08.156Z,100779.09
2023-03-02T03:14:39.330Z,100770.69
2023-03-02T03:17:12.192Z,100771.50
2023-03-02T03:19:46.486Z,100773.03
2023-03-02T03:22:16.819Z,100774.75
2023-03-02T03:24:47.571Z,100772.28
2023-03-02T03:27:18.214Z,100768.00
2023-03-02T03:29:49.144Z,100760.41
2023-03-02T03:32:20.389Z,100760.41
2023-03-02T03:34:50.778Z,100760.28
2023-03-02T03:37:26.819Z,100771.41
2023-03-02T03:39:54.723Z,100763.00
2023-03-02T03:42:24.224Z,100763.78
2023-03-02T03:44:53.649Z,100755.28
2023-03-02T03:47:22.456Z,100757.75
2023-03-02T03:49:51.743Z,100751.88
2023-03-02T03:52:30.328Z,100747.66
2023-03-02T03:55:04.099Z,100757.91
2023-03-02T03:57:33.857Z,100753.63
2023-03-02T04:00:01.925Z,100757.88
2023-03-02T04:02:30.080Z,100749.28
2023-03-02T04:05:03.587Z,100754.47
2023-03-02T04:07:31.497Z,100754.56
2023-03-02T04:10:03.910Z,100754.47
2023-03-02T04:12:39.669Z,100757.88
2023-03-02T04:15:10.268Z,100766.31
2023-03-02T04:17:38.534Z,100773.91
2023-03-02T04:20:09.354Z,100768.88
2023-03-02T04:22:38.790Z,100776.53
2023-03-02T04:25:07.843Z,100759.53
2023-03-02T04:27:37.677Z,100771.41
2023-03-02T04:30:07.311Z,100774.00
2023-03-02T04:32:36.156Z,100774.06
2023-03-02T04:35:05.162Z,100768.88
2023-03-02T04:37:33.153Z,100767.28
2023-03-02T04:40:01.027Z,100774.06
2023-03-02T04:42:28.907Z,100771.50
2023-03-02T04:44:58.313Z,100766.44
2023-03-02T04:47:26.954Z,100770.78
2023-03-02T04:49:56.572Z,100775.06
2023-03-02T04:52:25.012Z,100769.91
2023-03-02T04:54:52.860Z,100769.97
2023-03-02T04:57:20.550Z,100769.13
2023-03-02T04:59:48.207Z,100775.91
2023-03-02T05:02:17.585Z,100775.84
2023-03-02T05:04:46.069Z,100774.31
2023-03-02T05:07:13.901Z,100767.47
2023-03-02T05:09:42.549Z,100770.03
2023-03-02T05:12:10.333Z,100770.03
2023-03-02T05:14:38.217Z,100768.28
2023-03-02T05:17:06.133Z,100764.84
2023-03-02T05:19:35.258Z,100761.53
2023-03-02T05:22:03.302Z,100770.03
2023-03-02T05:24:31.085Z,100768.25
2023-03-02T05:26:58.855Z,100767.38
2023-03-02T05:29:26.610Z,100768.22
2023-03-02T05:31:54.496Z,100760.56
2023-03-02T05:34:22.678Z,100763.16
2023-03-02T05:36:51.775Z,100760.50
2023-03-02T05:39:19.525Z,100756.25
2023-03-02T05:41:47.805Z,100757.97
2023-03-02T05:44:15.654Z,100763.03
2023-03-02T05:46:44.152Z,100767.34
2023-03-02T05:49:11.914Z,100771.53
2023-03-02T05:51:39.660Z,100771.59
2023-03-02T05:54:08.719Z,100768.13
2023-03-02T05:56:36.714Z,100775.00
2023-03-02T05:59:04.692Z,100773.25
2023-03-02T06:01:33.100Z,100778.38
2023-03-02T06:04:01.117Z,100774.06
2023-03-02T06:06:29.014Z,100774.06
2023-03-02T06:08:56.938Z,100785.09
2023-03-02T06:11:26.556Z,100781.69
2023-03-02T06:13:54.486Z,100787.59
2023-03-02T06:16:22.446Z,100789.41
2023-03-02T06:18:50.177Z,100788.53
2023-03-02T06:21:17.898Z,100791.03
2023-03-02T06:23:46.646Z,100797.03
2023-03-02T06:26:14.842Z,100791.09
2023-03-02T06:28:52.638Z,100796.22
2023-03-02T06:31:22.272Z,100802.97
2023-03-02T06:33:51.291Z,100801.41
2023-03-02T06:36:19.520Z,100801.44
2023-03-02T06:38:47.751Z,100799.84
2023-03-02T06:41:15.940Z,100804.09
2023-03-02T06:43:45.969Z,100805.75
2023-03-02T06:46:14.087Z,100811.75
2023-03-02T06:48:42.841Z,100810.91
2023-03-02T06:51:12.566Z,100803.31
2023-03-02T06:53:40.393Z,100810.13
2023-03-02T06:56:09.629Z,100818.63
2023-03-02T06:58:38.293Z,100816.09
2023-03-02T07:01:08.734Z,100822.19
2023-03-02T07:03:37.199Z,100821.31
2023-03-02T07:06:05.699Z,100821.28
2023-03-02T07:08:33.840Z,100821.28
2023-03-02T07:11:06.733Z,100817.03
2023-03-02T07:13:34.691Z,100821.28
2023-03-02T07:16:08.857Z,100820.47
2023-03-02T07:18:37.039Z,100813.66
2023-03-02T07:21:06.289Z,100815.38
2023-03-02T07:23:34.747Z,100809.44
2023-03-02T07:26:02.550Z,100813.69
2023-03-02T07:28:30.499Z,100821.41
2023-03-02T07:30:58.707Z,100814.53
2023-03-02T07:33:27.976Z,100818.03
2023-03-02T07:35:55.692Z,100816.31
2023-03-02T07:38:24.312Z,100818.88
2023-03-02T07:40:53.724Z,100815.44
2023-03-02T07:43:21.603Z,100818.91
2023-03-02T07:45:49.388Z,100819.75
2023-03-02T07:48:17.422Z,100805.22
2023-03-02T07:50:46.773Z,100816.34
2023-03-02T07:53:14.615Z,100815.47
2023-03-02T07:55:44.148Z,100816.34
2023-03-02T07:58:12.594Z,100812.91
2023-03-02T08:00:42.635Z,100807.78
2023-03-02T08:03:10.983Z,100813.75
2023-03-02T08:05:38.959Z,100796.53
2023-03-02T08:08:08.426Z,100805.13
2023-03-02T08:10:36.818Z,100800.03
2023-03-02T08:13:06.025Z,100790.59
2023-03-02T08:15:33.829Z,100802.53
2023-03-02T08:18:01.906Z,100795.63
2023-03-02T08:20:29.627Z,100793.88
2023-03-02T08:22:58.821Z,100787.00
2023-03-02T08:25:28.894Z,100792.06
2023-03-02T08:27:57.636Z,100792.81
2023-03-02T08:30:25.402Z,100789.22
2023-03-02T08:32:53.258Z,100791.88
2023-03-02T08:35:22.595Z,100791.00
2023-03-02T08:37:50.379Z,100777.88
2023-03-02T08:40:18.563Z,100782.03
2023-03-02T08:42:49.866Z,100778.50
2023-03-02T08:45:19.488Z,100777.75
2023-03-02T08:47:47.689Z,100777.56
2023-03-02T08:50:15.623Z,100766.28
2023-03-02T08:52:45.218Z,100768.00
2023-03-02T08:55:14.044Z,100763.66
2023-03-02T08:57:44.779Z,100763.38
2023-03-02T09:00:16.389Z,100760.06
2023-03-02T09:02:46.212Z,100757.25
2023-03-02T09:05:14.403Z,100752.09
2023-03-02T09:07:43.186Z,100754.44
2023-03-02T09:10:12.005Z,100746.47
2023-03-02T09:12:39.730Z,100742.75
2023-03-02T09:15:08.498Z,100747.38
2023-03-02T09:17:37.662Z,100741.25
2023-03-02T09:20:06.778Z,100741.72
2023-03-02T09:22:35.793Z,100738.09
2023-03-02T09:25:05.501Z,100731.28
2023-03-02T09:27:34.259Z,100735.03
2023-03-02T09:30:03.224Z,100738.41
2023-03-02T09:32:31.048Z,100732.53
2023-03-02T09:35:00.226Z,100730.75
2023-03-02T09:37:29.341Z,100736.63
2023-03-02T09:39:57.276Z,100723.47
2023-03-02T09:42:44.415Z,100723.00
2023-03-02T09:45:45.267Z,100727.22
2023-03-02T09:48:21.978Z,100711.06
2023-03-02T09:51:04.191Z,100710.22
2023-03-02T09:53:47.406Z,100718.16
2023-03-02T09:56:17.619Z,100711.97
2023-03-02T09:58:53.904Z,100715.59
2023-03-02T10:01:33.139Z,100713.84
2023-03-02T10:04:09.290Z,100703.59
2023-03-02T10:06:38.461Z,100706.19
2023-03-02T10:09:07.603Z,100711.97
2023-03-02T10:11:46.125Z,100707.19
2023-03-02T10:14:19.158Z,100710.66
2023-03-02T10:16:50.100Z,100703.94
2023-03-02T10:19:25.059Z,100701.34
2023-03-02T10:22:01.668Z,100703.03
2023-03-02T10:24:36.079Z,100699.09
2023-03-02T10:27:15.785Z,100687.75
2023-03-02T10:29:52.107Z,100699.44
2023-03-02T10:32:22.797Z,100695.16
2023-03-02T10:34:51.858Z,100695.22
2023-03-02T10:37:25.239Z,100695.56
2023-03-02T10:39:53.191Z,100692.78
2023-03-02T10:42:26.974Z,100690.25
2023-03-02T10:44:58.377Z,100687.50
2023-03-02T10:47:28.125Z,100686.63
2023-03-02T10:49:57.430Z,100679.19
2023-03-02T10:52:28.613Z,100675.09
2023-03-02T10:55:03.912Z,100670.66
2023-03-02T10:57:37.800Z,100671.78
2023-03-02T11:00:16.509Z,100674.50
2023-03-02T11:02:52.323Z,100660.56
2023-03-02T11:05:24.154Z,100664.50
2023-03-02T11:07:57.918Z,100654.38
2023-03-02T11:10:29.018Z,100647.81
2023-03-02T11:12:56.960Z,100640.78
2023-03-02T11:15:28.103Z,100646.94
2023-03-02T11:18:04.268Z,100644.09
2023-03-02T11:20:35.569Z,100639.16
2023-03-02T11:23:27.766Z,100639.09
2023-03-02T11:25:58.761Z,100623.47
2023-03-02T11:28:47.209Z,100618.69
2023-03-02T11:31:22.815Z,100616.00
2023-03-02T11:34:17.351Z,100609.63
2023-03-02T11:36:57.332Z,100614.94
2023-03-02T11:39:32.734Z,100615.38
2023-03-02T11:42:00.482Z,100607.41
2023-03-02T11:44:29.690Z,100603.88
2023-03-02T11:47:02.365Z,100600.44
2023-03-02T11:49:39.222Z,100599.81
2023-03-02T11:52:17.041Z,100593.88
2023-03-02T11:54:50.470Z,100599.59
2023-03-02T11:57:23.257Z,100589.00
2023-03-02T11:59:53.351Z,100585.59
2023-03-02T12:02:21.741Z,100585.72
2023-03-02T12:04:50.018Z,100580.00
2023-03-02T12:07:22.748Z,100568.66
2023-03-02T12:10:03.556Z,100564.94
2023-03-02T12:12:41.221Z,100557.00
2023-03-02T12:15:38.664Z,100554.28
2023-03-02T12:18:55.420Z,100546.59
2023-03-02T12:21:24.669Z,100541.38
2023-03-02T12:23:59.463Z,100536.69
2023-03-02T12:26:34.050Z,100533.22
2023-03-02T12:29:05.845Z,100536.25
2023-03-02T12:31:45.961Z,100538.06
2023-03-02T12:34:36.703Z,100532.78
2023-03-02T12:37:09.262Z,100532.03
2023-03-02T12:40:12.271Z,100528.59
2023-03-02T12:43:18.282Z,100524.63
2023-03-02T12:46:08.953Z,100521.00
2023-03-02T12:48:44.478Z,100519.72
2023-03-02T12:51:19.518Z,100511.19
2023-03-02T12:53:49.410Z,100512.22
2023-03-02T12:56:24.818Z,100507.31
2023-03-02T12:58:55.415Z,100513.56
2023-03-02T13:01:25.220Z,100507.44
2023-03-02T13:03:54.506Z,100491.38
2023-03-02T13:06:25.341Z,100500.09
2023-03-02T13:08:57.608Z,100498.13
2023-03-02T13:11:28.896Z,100486.56
2023-03-02T13:13:59.293Z,100486.88
2023-03-02T13:16:29.914Z,100494.75
2023-03-02T13:18:59.990Z,100486.09
2023-03-02T13:21:32.436Z,100485.41
2023-03-02T13:24:00.727Z,100486.63
2023-03-02T13:26:30.897Z,100472.50
2023-03-02T13:29:06.033Z,100475.47
2023-03-02T13:31:35.320Z,100488.41
2023-03-02T13:34:03.243Z,100482.03
2023-03-02T13:36:35.606Z,100486.72
2023-03-02T13:39:07.125Z,100477.34
2023-03-02T13:41:37.252Z,100484.75
2023-03-02T13:44:19.709Z,100480.28
2023-03-02T13:46:48.472Z,100478.56
2023-03-02T13:49:27.804Z,100470.91
2023-03-02T13:52:02.058Z,100479.44
2023-03-02T13:54:32.637Z,100471.78
2023-03-02T13:57:03.181Z,100468.03
2023-03-02T13:59:33.076Z,100472.28
2023-03-02T14:02:01.104Z,100468.50
2023-03-02T14:04:29.310Z,100462.56
2023-03-02T14:06:57.100Z,100467.31
2023-03-02T14:09:27.445Z,100467.00
2023-03-02T14:11:57.721Z,100467.00
2023-03-02T14:14:28.809Z,100460.38
2023-03-02T14:16:58.241Z,100465.75
2023-03-02T14:19:26.489Z,100462.81
2023-03-02T14:21:54.186Z,100459.16
2023-03-02T14:24:21.993Z,100456.00
2023-03-02T14:26:50.641Z,100454.13
2023-03-02T14:29:23.876Z,100448.88
2023-03-02T14:31:52.347Z,100450.94
2023-03-02T14:34:21.507Z,100446.97
2023-03-02T14:36:51.532Z,100451.56
2023-03-02T14:39:22.726Z,100447.41
2023-03-02T14:41:54.066Z,100451.91
2023-03-02T14:44:23.441Z,100440.50
2023-03-02T14:46:51.628Z,100445.13
2023-03-02T14:49:20.783Z,100443.47
2023-03-02T14:51:56.473Z,100446.00
2023-03-02T14:54:24.603Z,100438.06
2023-03-02T14:56:53.253Z,100441.63
2023-03-02T14:59:21.048Z,100442.91
2023-03-02T15:01:49.355Z,100438.09
2023-03-02T15:04:17.167Z,100440.38
2023-03-02T15:11:00.473Z,100447.91
2023-03-02T15:17:44.147Z,100441.63
2023-03-02T15:20:15.495Z,100450.53
2023-03-02T15:22:44.763Z,100452.72
2023-03-02T15:25:13.133Z,100450.47
2023-03-02T15:27:44.152Z,100450.84
2023-03-02T15:30:13.144Z,100454.78
2023-03-02T15:32:41.194Z,100451.72
2023-03-02T15:35:09.873Z,100451.38
2023-03-02T15:37:37.525Z,100453.81
2023-03-02T15:40:06.462Z,100460.41
2023-03-02T15:42:34.317Z,100455.66
2023-03-02T15:45:03.393Z,100458.31
2023-03-02T15:47:33.433Z,100449.59
2023-03-02T15:50:01.405Z,100460.25
2023-03-02T15:52:29.094Z,100444.84
2023-03-02T15:54:56.898Z,100448.50
2023-03-02T15:57:24.635Z,100451.88
2023-03-02T15:59:52.672Z,100459.31
2023-03-02T16:02:21.657Z,100461.78
2023-03-02T16:04:49.453Z,100453.75
2023-03-02T16:07:17.181Z,100458.03
2023-03-02T16:09:46.495Z,100464.56
2023-03-02T16:12:14.266Z,100472.53
2023-03-02T16:14:42.219Z,100474.84
2023-03-02T16:17:10.155Z,100472.09
2023-03-02T16:19:39.341Z,100466.25
2023-03-02T16:22:07.582Z,100478.78
2023-03-02T16:24:35.784Z,100474.56
2023-03-02T16:27:04.884Z,100478.47
2023-03-02T16:29:32.603Z,100479.25
2023-03-02T16:32:00.454Z,100486.66
2023-03-02T16:34:28.330Z,100483.06
2023-03-02T16:36:57.498Z,100483.78
2023-03-02T16:39:25.512Z,100487.59
2023-03-02T16:41:53.477Z,100493.78
2023-03-02T16:44:21.412Z,100496.06
2023-03-02T16:46:49.113Z,100504.38
2023-03-02T16:49:16.899Z,100506.41
2023-03-02T16:51:45.658Z,100517.19
2023-03-02T16:54:17.756Z,100519.25
2023-03-02T16:56:47.232Z,100525.84
2023-03-02T16:59:15.309Z,100529.53
2023-03-02T17:01:45.306Z,100533.81
2023-03-02T17:04:13.230Z,100533.22
2023-03-02T17:06:59.725Z,100536.09
2023-03-02T17:09:29.809Z,100541.47
2023-03-02T17:11:57.885Z,100547.41
2023-03-02T17:14:25.762Z,100556.53
2023-03-02T17:16:53.762Z,100545.28
2023-03-02T17:19:21.781Z,100558.41
2023-03-02T17:21:49.958Z,100551.84
2023-03-02T17:24:17.637Z,100562.91
2023-03-02T17:26:47.457Z,100564.16
2023-03-02T17:29:15.177Z,100565.22
2023-03-02T17:31:43.365Z,100573.19
2023-03-02T17:34:11.595Z,100571.28
2023-03-02T17:36:39.918Z,100582.69
2023-03-02T17:39:08.020Z,100584.50
2023-03-02T17:41:36.492Z,100584.72
2023-03-02T17:44:06.390Z,100594.41
2023-03-02T17:46:34.322Z,100586.03
2023-03-02T17:49:02.268Z,100596.41
2023-03-02T17:51:30.432Z,100585.47
2023-03-02T17:53:58.161Z,100600.34
2023-03-02T17:56:28.212Z,100604.84
2023-03-02T17:58:57.380Z,100608.50
2023-03-02T18:01:27.233Z,100614.94
2023-03-02T18:03:55.371Z,100615.25
2023-03-02T18:06:23.120Z,100608.56
2023-03-02T18:08:52.684Z,100617.22
2023-03-02T18:11:24.194Z,100618.81
2023-03-02T18:13:54.722Z,100617.28
2023-03-02T18:16:22.621Z,100621.72
2023-03-02T18:18:53.817Z,100626.13
2023-03-02T18:21:22.708Z,100629.63
2023-03-02T18:23:50.774Z,100632.41
2023-03-02T18:26:18.891Z,100635.00
2023-03-02T18:28:48.180Z,100637.63
2023-03-02T18:31:17.182Z,100640.44
2023-03-02T18:33:47.901Z,100646.31
2023-03-02T18:36:17.709Z,100646.66
2023-03-02T18:38:47.101Z,100648.31
2023-03-02T18:41:15.181Z,100649.91
2023-03-02T18:43:44.281Z,100651.06
2023-03-02T18:46:20.457Z,100652.00
2023-03-02T18:48:49.728Z,100650.09
2023-03-02T18:51:19.372Z,100662.25
2023-03-02T18:53:48.913Z,100649.19
2023-03-02T18:56:16.770Z,100654.34
2023-03-02T18:58:46.423Z,100657.63
2023-03-02T19:01:14.945Z,100656.09
2023-03-02T19:03:46.478Z,100656.66
2023-03-02T19:06:15.785Z,100662.47
2023-03-02T19:08:48.096Z,100653.03
2023-03-02T19:11:15.887Z,100660.00
2023-03-02T19:13:44.295Z,100658.09
2023-03-02T19:16:13.162Z,100659.38
2023-03-02T19:18:41.160Z,100667.13
2023-03-02T19:21:09.019Z,100663.72
2023-03-02T19:23:36.815Z,100657.09
2023-03-02T19:26:06.518Z,100667.47
2023-03-02T19:28:36.113Z,100667.69
2023-03-02T19:31:06.732Z,100668.63
2023-03-02T19:33:34.812Z,100680.03
2023-03-02T19:36:02.702Z,100674.00
2023-03-02T19:38:30.504Z,100676.50
2023-03-02T19:40:59.507Z,100677.44
2023-03-02T19:43:29.432Z,100679.31
2023-03-02T19:45:57.201Z,100679.53
2023-03-02T19:48:25.616Z,100673.88
2023-03-02T19:50:54.065Z,100685.25
2023-03-02T19:53:21.891Z,100679.06
2023-03-02T19:55:51.567Z,100685.13
2023-03-02T19:58:20.534Z,100680.91
2023-03-02T20:00:49.901Z,100687.06
2023-03-02T20:03:17.708Z,100693.03
2023-03-02T20:05:45.758Z,100691.44
2023-03-02T20:08:14.746Z,100694.09
2023-03-02T20:10:45.451Z,100700.31
2023-03-02T20:13:13.736Z,100697.84
2023-03-02T20:15:44.726Z,100700.41
2023-03-02T20:18:16.472Z,100698.72
2023-03-02T20:20:45.684Z,100710.00
2023-03-02T20:23:13.905Z,100711.69
2023-03-02T20:25:41.635Z,100709.22
2023-03-02T20:28:12.967Z,100707.56
2023-03-02T20:30:44.430Z,100711.06
2023-03-02T20:33:14.827Z,100711.09
2023-03-02T20:35:45.932Z,100712.84
2023-03-02T20:38:18.131Z,100711.19
2023-03-02T20:40:49.863Z,100722.28
2023-03-02T20:43:18.026Z,100716.34
2023-03-02T20:45:48.650Z,100721.31
2023-03-02T20:48:18.108Z,100725.66
2023-03-02T20:50:47.442Z,100722.66
2023-03-02T20:53:15.314Z,100717.56
2023-03-02T20:55:43.985Z,100733.28
2023-03-02T20:58:12.844Z,100730.94
2023-03-02T21:00:41.753Z,100724.00
2023-03-02T21:03:10.218Z,100733.41
2023-03-02T21:05:41.167Z,100733.56
2023-03-02T21:08:10.173Z,100730.28
2023-03-02T21:10:39.484Z,100734.59
2023-03-02T21:13:08.582Z,100728.69
2023-03-02T21:15:37.508Z,100722.56
2023-03-02T21:18:06.120Z,100727.72
2023-03-02T21:20:37.517Z,100730.41
2023-03-02T21:23:07.420Z,100733.09
2023-03-02T21:25:35.792Z,100732.34
2023-03-02T21:28:04.248Z,100731.47
2023-03-02T21:30:35.054Z,100734.97
2023-03-02T21:33:03.712Z,100734.09
2023-03-02T21:35:32.484Z,100741.97
2023-03-02T21:38:04.830Z,100737.63
2023-03-02T21:40:37.653Z,100734.34
2023-03-02T21:43:06.419Z,100735.28
2023-03-02T21:45:35.071Z,100729.31
2023-03-02T21:48:04.392Z,100737.91
2023-03-02T21:50:36.820Z,100728.56
2023-03-02T21:53:05.768Z,100732.88
2023-03-02T21:55:36.211Z,100731.03
2023-03-02T21:58:04.459Z,100732.75
2023-03-02T22:00:37.449Z,100735.38
2023-03-02T22:03:06.708Z,100735.44
2023-03-02T22:05:37.981Z,100727.75
2023-03-02T22:08:06.935Z,100732.00
2023-03-02T22:10:40.945Z,100731.31
2023-03-02T22:13:22.796Z,100733.91
2023-03-02T22:15:52.020Z,100734.78
2023-03-02T22:18:21.330Z,100740.84
2023-03-02T22:20:52.067Z,100745.06
2023-03-02T22:23:21.812Z,100742.41
2023-03-02T22:25:53.902Z,100746.75
2023-03-02T22:28:23.354Z,100750.22
2023-03-02T22:30:51.938Z,100755.50
2023-03-02T22:33:22.042Z,100748.69
2023-03-02T22:35:51.319Z,100752.09
2023-03-02T22:38:25.095Z,100754.59
2023-03-02T22:40:55.604Z,100758.97
2023-03-02T22:43:26.704Z,100762.38
2023-03-02T22:45:55.487Z,100761.59
2023-03-02T22:48:25.482Z,100766.75
2023-03-02T22:50:53.278Z,100766.78
2023-03-02T22:53:25.953Z,100762.44
2023-03-02T22:56:00.260Z,100764.25
2023-03-02T22:58:42.663Z,100774.56
2023-03-02T23:01:21.366Z,100763.19
2023-03-02T23:03:50.977Z,100757.31
2023-03-02T23:06:28.285Z,100758.25
2023-03-02T23:08:57.763Z,100770.28
2023-03-02T23:11:28.228Z,100759.94
2023-03-02T23:13:56.197Z,100768.59
2023-03-02T23:16:25.731Z,100772.09
2023-03-02T23:18:55.913Z,100768.72
2023-03-02T23:21:28.313Z,100772.97
2023-03-02T23:23:56.583Z,100775.53
2023-03-02T23:26:24.540Z,100771.28
2023-03-02T23:28:53.621Z,100767.94
2023-03-02T23:31:21.500Z,100768.75
2023-03-02T23:33:49.603Z,100770.53
2023-03-02T23:36:17.712Z,100763.59
2023-03-02T23:38:46.030Z,100770.53
2023-03-02T23:41:14.367Z,100775.66
2023-03-02T23:43:42.445Z,100777.31
2023-03-02T23:46:14.164Z,100779.09
2023-03-02T23:48:42.900Z,100781.72
2023-03-02T23:51:10.663Z,100780.03
2023-03-02T23:53:39.019Z,100772.28
2023-03-02T23:56:07.817Z,100778.38
2023-03-02T23:58:35.559Z,100784.31
